createdAt,value
2018-02-09T00:01:48.379Z,5.60
2018-02-09T00:04:17.144Z,5.70
2018-02-09T00:06:46.325Z,5.70
2018-02-09T00:09:15.030Z,5.70
2018-02-09T00:11:43.875Z,5.80
2018-02-09T00:14:12.478Z,5.70
2018-02-09T00:16:41.170Z,5.70
2018-02-09T00:19:09.931Z,5.60
2018-02-09T00:21:38.991Z,5.70
2018-02-09T00:24:08.628Z,5.70
2018-02-09T00:26:37.972Z,5.70
2018-02-09T00:29:11.464Z,5.60
2018-02-09T00:31:40.039Z,5.70
2018-02-09T00:34:08.760Z,5.70
2018-02-09T00:36:38.420Z,5.70
2018-02-09T00:39:07.468Z,5.50
2018-02-09T00:41:37.010Z,5.60
2018-02-09T00:44:06.311Z,5.60
2018-02-09T00:46:34.877Z,5.60
2018-02-09T00:49:03.525Z,5.50
2018-02-09T00:51:32.916Z,5.60
2018-02-09T00:54:01.524Z,5.50
2018-02-09T00:56:30.853Z,5.60
2018-02-09T00:58:59.488Z,5.60
2018-02-09T01:01:28.088Z,5.60
2018-02-09T01:03:57.478Z,5.60
2018-02-09T01:06:27.810Z,5.60
2018-02-09T01:08:56.382Z,5.50
2018-02-09T01:11:25.039Z,5.50
2018-02-09T01:13:53.659Z,5.60
2018-02-09T01:16:22.239Z,5.60
2018-02-09T01:18:50.796Z,5.60
2018-02-09T01:21:19.401Z,5.70
2018-02-09T01:23:49.394Z,5.60
2018-02-09T01:26:18.760Z,5.60
2018-02-09T01:28:48.142Z,5.60
2018-02-09T01:31:16.725Z,5.50
2018-02-09T01:33:46.085Z,5.60
2018-02-09T01:36:14.707Z,5.60
2018-02-09T01:38:44.057Z,5.70
2018-02-09T01:41:13.079Z,5.70
2018-02-09T01:43:42.482Z,5.70
2018-02-09T01:46:11.847Z,5.60
2018-02-09T01:48:41.265Z,5.60
2018-02-09T01:51:10.155Z,5.60
2018-02-09T01:53:40.278Z,5.60
2018-02-09T01:56:08.918Z,5.60
2018-02-09T01:58:38.316Z,5.60
2018-02-09T02:01:06.921Z,5.60
2018-02-09T02:03:36.647Z,5.50
2018-02-09T02:06:05.696Z,5.60
2018-02-09T02:08:34.313Z,5.60
2018-02-09T02:11:02.997Z,5.50
2018-02-09T02:13:34.672Z,5.50
2018-02-09T02:16:03.264Z,5.60
2018-02-09T02:18:31.892Z,5.60
2018-02-09T02:21:00.873Z,5.60
2018-02-09T02:23:29.471Z,5.60
2018-02-09T02:25:58.062Z,5.60
2018-02-09T02:28:26.682Z,5.60
2018-02-09T02:30:55.354Z,5.60
2018-02-09T02:33:24.073Z,5.60
2018-02-09T02:35:52.755Z,5.70
2018-02-09T02:38:21.387Z,5.70
2018-02-09T02:40:49.965Z,5.70
2018-02-09T02:43:18.639Z,5.70
2018-02-09T02:45:47.234Z,5.70
2018-02-09T02:48:15.787Z,5.80
2018-02-09T02:50:44.471Z,5.80
2018-02-09T02:53:13.083Z,5.70
2018-02-09T02:55:41.711Z,5.70
2018-02-09T02:58:10.402Z,5.70
2018-02-09T03:00:39.926Z,5.70
2018-02-09T03:03:08.620Z,5.70
2018-02-09T03:05:38.102Z,5.80
2018-02-09T03:08:07.608Z,5.80
2018-02-09T03:10:36.318Z,5.70
2018-02-09T03:13:05.370Z,5.80
2018-02-09T03:15:34.021Z,5.80
2018-02-09T03:18:02.676Z,5.70
2018-02-09T03:20:31.393Z,5.70
2018-02-09T03:23:00.455Z,5.70
2018-02-09T03:25:29.078Z,5.70
2018-02-09T03:27:58.703Z,5.80
2018-02-09T03:30:27.375Z,5.80
2018-02-09T03:32:55.994Z,5.80
2018-02-09T03:35:24.900Z,5.80
2018-02-09T03:37:53.554Z,5.80
2018-02-09T03:40:22.181Z,5.70
2018-02-09T03:42:50.792Z,5.70
2018-02-09T03:45:19.365Z,5.70
2018-02-09T03:47:47.997Z,5.70
2018-02-09T03:50:16.677Z,5.70
2018-02-09T03:52:45.254Z,5.70
2018-02-09T03:55:14.708Z,5.70
2018-02-09T03:57:44.422Z,5.70
2018-02-09T04:00:13.267Z,5.70
2018-02-09T04:02:42.401Z,5.70
2018-02-09T04:05:12.114Z,5.70
2018-02-09T04:07:41.002Z,5.70
2018-02-09T04:10:10.098Z,5.70
2018-02-09T04:12:39.000Z,5.80
2018-02-09T04:15:07.593Z,5.80
2018-02-09T04:17:36.212Z,5.70
2018-02-09T04:20:04.844Z,5.70
2018-02-09T04:22:33.542Z,5.60
2018-02-09T04:25:02.178Z,5.60
2018-02-09T04:27:31.490Z,5.60
2018-02-09T04:30:00.046Z,5.60
2018-02-09T04:32:29.094Z,5.70
2018-02-09T04:34:57.779Z,5.60
2018-02-09T04:37:26.410Z,5.60
2018-02-09T04:39:54.973Z,5.60
2018-02-09T04:42:24.438Z,5.60
2018-02-09T04:44:53.391Z,5.60
2018-02-09T04:47:21.985Z,5.70
2018-02-09T04:49:51.033Z,5.70
2018-02-09T04:52:19.613Z,5.60
2018-02-09T04:54:48.238Z,5.60
2018-02-09T04:57:17.596Z,5.60
2018-02-09T04:59:46.158Z,5.60
2018-02-09T05:02:14.710Z,5.60
2018-02-09T05:04:43.338Z,5.60
2018-02-09T05:07:11.957Z,5.60
2018-02-09T05:09:40.533Z,5.50
2018-02-09T05:12:09.904Z,5.40
2018-02-09T05:14:38.477Z,5.30
2018-02-09T05:17:07.087Z,5.30
2018-02-09T05:19:35.718Z,5.30
2018-02-09T05:22:04.356Z,5.30
2018-02-09T05:24:32.989Z,5.30
2018-02-09T05:27:01.621Z,5.30
2018-02-09T05:29:31.438Z,5.30
2018-02-09T05:32:00.027Z,5.30
2018-02-09T05:34:29.054Z,5.20
2018-02-09T05:36:57.666Z,5.20
2018-02-09T05:39:26.282Z,5.10
2018-02-09T05:41:54.875Z,5.00
2018-02-09T05:44:23.898Z,4.90
2018-02-09T05:46:52.481Z,4.90
2018-02-09T05:49:21.134Z,4.80
2018-02-09T05:51:50.111Z,4.80
2018-02-09T05:54:19.114Z,4.70
2018-02-09T05:56:48.162Z,4.60
2018-02-09T05:59:16.881Z,4.70
2018-02-09T06:01:45.587Z,4.80
2018-02-09T06:04:14.275Z,4.90
2018-02-09T06:06:42.904Z,5.00
2018-02-09T06:09:12.259Z,5.00
2018-02-09T06:11:40.879Z,5.00
2018-02-09T06:14:09.502Z,5.00
2018-02-09T06:16:38.108Z,4.80
2018-02-09T06:19:06.740Z,4.80
2018-02-09T06:21:36.130Z,4.90
2018-02-09T06:24:05.776Z,4.90
2018-02-09T06:26:34.442Z,4.90
2018-02-09T06:29:03.078Z,5.00
2018-02-09T06:31:33.766Z,5.00
2018-02-09T06:34:03.742Z,5.10
2018-02-09T06:36:33.993Z,5.10
2018-02-09T06:39:03.096Z,5.10
2018-02-09T06:41:33.488Z,5.20
2018-02-09T06:44:03.285Z,5.20
2018-02-09T06:46:33.568Z,5.20
2018-02-09T06:49:02.293Z,5.10
2018-02-09T06:51:30.988Z,5.00
2018-02-09T06:54:00.370Z,4.90
2018-02-09T06:56:30.129Z,4.90
2018-02-09T06:58:58.825Z,5.00
2018-02-09T07:01:27.412Z,4.90
2018-02-09T07:03:56.811Z,4.80
2018-02-09T07:06:25.423Z,4.80
2018-02-09T07:08:54.866Z,4.80
2018-02-09T07:11:24.514Z,4.70
2018-02-09T07:13:53.254Z,4.70
2018-02-09T07:16:22.234Z,4.90
2018-02-09T07:18:51.330Z,5.00
2018-02-09T07:21:20.376Z,5.00
2018-02-09T07:23:49.022Z,5.00
2018-02-09T07:26:17.705Z,5.00
2018-02-09T07:28:46.392Z,4.90
2018-02-09T07:31:14.977Z,5.00
2018-02-09T07:33:43.682Z,4.90
2018-02-09T07:36:12.661Z,5.10
2018-02-09T07:38:42.958Z,5.20
2018-02-09T07:41:11.983Z,5.30
2018-02-09T07:43:40.988Z,5.50
2018-02-09T07:46:10.483Z,5.70
2018-02-09T07:48:39.487Z,5.70
2018-02-09T07:51:08.663Z,5.60
2018-02-09T07:53:37.613Z,5.70
2018-02-09T07:56:06.995Z,5.80
2018-02-09T07:58:36.360Z,5.90
2018-02-09T08:01:06.168Z,5.90
2018-02-09T08:03:35.976Z,6.00
2018-02-09T08:06:05.328Z,6.00
2018-02-09T08:08:35.370Z,6.00
2018-02-09T08:11:05.628Z,6.00
2018-02-09T08:13:35.234Z,6.00
2018-02-09T08:16:03.902Z,6.00
2018-02-09T08:18:33.328Z,6.20
2018-02-09T08:21:02.626Z,6.10
2018-02-09T08:23:32.130Z,6.20
2018-02-09T08:26:01.329Z,6.20
2018-02-09T08:28:31.070Z,6.30
2018-02-09T08:31:00.136Z,6.30
2018-02-09T08:33:29.126Z,6.30
2018-02-09T08:35:58.877Z,6.50
2018-02-09T08:38:28.043Z,6.80
2018-02-09T08:40:57.550Z,6.90
2018-02-09T08:43:26.155Z,7.00
2018-02-09T08:45:55.630Z,7.10
2018-02-09T08:48:24.731Z,7.10
2018-02-09T08:50:54.339Z,7.10
2018-02-09T08:53:23.942Z,7.10
2018-02-09T08:55:53.312Z,7.00
2018-02-09T08:58:22.672Z,7.10
2018-02-09T09:00:51.293Z,7.10
2018-02-09T09:03:20.641Z,7.20
2018-02-09T09:05:49.650Z,7.20
2018-02-09T09:08:18.622Z,7.20
2018-02-09T09:10:48.127Z,7.20
2018-02-09T09:13:18.145Z,7.30
2018-02-09T09:15:46.830Z,7.40
2018-02-09T09:18:15.426Z,7.40
2018-02-09T09:20:44.584Z,7.40
2018-02-09T09:23:13.209Z,7.30
2018-02-09T09:25:42.598Z,7.20
2018-02-09T09:28:12.138Z,7.40
2018-02-09T09:30:40.743Z,7.50
2018-02-09T09:33:09.694Z,7.40
2018-02-09T09:35:38.697Z,7.60
2018-02-09T09:38:07.691Z,7.80
2018-02-09T09:40:37.026Z,7.80
2018-02-09T09:43:06.020Z,7.90
2018-02-09T09:45:36.297Z,7.90
2018-02-09T09:48:06.514Z,7.80
2018-02-09T09:50:36.114Z,7.80
2018-02-09T09:53:05.723Z,7.80
2018-02-09T09:55:34.519Z,7.80
2018-02-09T09:58:03.197Z,7.90
2018-02-09T10:00:32.293Z,7.90
2018-02-09T10:03:00.936Z,8.00
2018-02-09T10:05:30.333Z,8.10
2018-02-09T10:07:59.360Z,8.10
2018-02-09T10:10:28.780Z,8.00
2018-02-09T10:12:58.120Z,8.10
2018-02-09T10:15:27.584Z,8.20
2018-02-09T10:17:56.655Z,8.10
2018-02-09T10:20:25.648Z,8.30
2018-02-09T10:22:55.016Z,8.40
2018-02-09T10:25:24.070Z,8.50
2018-02-09T10:27:52.768Z,8.50
2018-02-09T10:30:22.413Z,8.50
2018-02-09T10:32:51.819Z,8.50
2018-02-09T10:35:20.795Z,8.60
2018-02-09T10:37:50.303Z,8.60
2018-02-09T10:40:19.770Z,8.60
2018-02-09T10:42:49.277Z,8.70
2018-02-09T10:45:17.962Z,8.70
2018-02-09T10:47:47.432Z,8.60
2018-02-09T10:50:16.176Z,8.80
2018-02-09T10:52:45.764Z,9.00
2018-02-09T10:55:15.238Z,9.00
2018-02-09T10:57:44.317Z,9.10
2018-02-09T11:00:13.868Z,9.20
2018-02-09T11:02:44.084Z,9.30
2018-02-09T11:05:13.185Z,9.10
2018-02-09T11:07:42.696Z,8.90
2018-02-09T11:10:17.930Z,8.80
2018-02-09T11:12:47.232Z,9.00
2018-02-09T11:15:16.688Z,9.00
2018-02-09T11:17:47.061Z,9.10
2018-02-09T11:20:16.771Z,9.10
2018-02-09T11:22:46.282Z,9.00
2018-02-09T11:25:15.918Z,8.90
2018-02-09T11:27:44.963Z,9.00
2018-02-09T11:30:13.835Z,8.90
2018-02-09T11:32:43.237Z,9.00
2018-02-09T11:35:12.577Z,9.30
2018-02-09T11:37:41.816Z,9.10
2018-02-09T11:40:11.001Z,9.10
2018-02-09T11:42:40.665Z,9.10
2018-02-09T11:45:10.043Z,9.20
2018-02-09T11:47:38.725Z,9.20
2018-02-09T11:50:07.770Z,9.00
2018-02-09T11:52:37.273Z,9.00
2018-02-09T11:55:05.955Z,9.10
2018-02-09T11:57:35.057Z,9.10
2018-02-09T12:00:04.363Z,9.10
2018-02-09T12:02:34.071Z,9.20
2018-02-09T12:05:03.264Z,9.30
2018-02-09T12:07:32.050Z,9.30
2018-02-09T12:10:02.009Z,9.30
2018-02-09T12:12:30.617Z,9.40
2018-02-09T12:15:00.055Z,9.60
2018-02-09T12:17:28.959Z,9.80
2018-02-09T12:19:57.593Z,9.90
2018-02-09T12:22:26.681Z,9.90
2018-02-09T12:24:56.117Z,10.10
2018-02-09T12:27:25.200Z,10.00
2018-02-09T12:29:54.630Z,10.10
2018-02-09T12:32:23.599Z,10.20
2018-02-09T12:34:52.246Z,10.20
2018-02-09T12:37:21.705Z,10.40
2018-02-09T12:39:50.396Z,10.50
2018-02-09T12:42:19.417Z,10.60
2018-02-09T12:44:49.566Z,10.60
2018-02-09T12:47:18.570Z,10.40
2018-02-09T12:49:47.294Z,10.50
2018-02-09T12:52:15.939Z,10.50
2018-02-09T12:54:44.573Z,10.60
2018-02-09T12:57:13.360Z,10.00
2018-02-09T12:59:42.226Z,10.30
2018-02-09T13:02:11.251Z,10.20
2018-02-09T13:04:40.514Z,10.40
2018-02-09T13:07:10.083Z,10.20
2018-02-09T13:09:39.247Z,10.20
2018-02-09T13:12:08.702Z,10.40
2018-02-09T13:14:49.377Z,10.40
2018-02-09T13:17:18.861Z,10.70
2018-02-09T13:19:47.579Z,10.90
2018-02-09T13:27:57.140Z,10.30
2018-02-09T13:30:26.837Z,10.30
2018-02-09T13:33:07.542Z,10.40
2018-02-09T13:35:36.918Z,10.70
2018-02-09T13:38:06.267Z,10.60
2018-02-09T13:40:35.768Z,10.50
2018-02-09T13:43:04.748Z,10.30
2018-02-09T13:45:34.114Z,10.40
2018-02-09T13:48:03.256Z,10.60
2018-02-09T13:50:32.040Z,10.70
2018-02-09T13:53:01.422Z,11.20
2018-02-09T13:55:30.830Z,12.20
2018-02-09T13:57:59.521Z,12.50
2018-02-09T14:00:28.338Z,13.00
2018-02-09T14:02:56.997Z,13.30
2018-02-09T14:05:26.144Z,11.60
2018-02-09T14:07:54.797Z,11.00
2018-02-09T14:10:24.183Z,11.00
2018-02-09T14:12:53.603Z,11.00
2018-02-09T14:15:22.696Z,10.90
2018-02-09T14:17:51.798Z,10.90
2018-02-09T14:20:21.189Z,10.80
2018-02-09T14:22:50.501Z,10.80
2018-02-09T14:25:19.526Z,11.30
2018-02-09T14:27:49.616Z,11.10
2018-02-09T14:30:19.370Z,11.10
2018-02-09T14:32:48.406Z,11.30
2018-02-09T14:35:17.414Z,11.50
2018-02-09T14:37:46.455Z,11.60
2018-02-09T14:40:15.080Z,11.80
2018-02-09T14:42:44.437Z,11.70
2018-02-09T14:45:13.088Z,11.30
2018-02-09T14:47:42.683Z,11.30
2018-02-09T14:50:12.103Z,11.50
2018-02-09T14:52:40.756Z,11.30
2018-02-09T14:55:10.135Z,11.00
2018-02-09T14:57:39.169Z,10.90
2018-02-09T15:00:07.862Z,11.20
2018-02-09T15:02:36.908Z,11.10
2018-02-09T15:05:06.268Z,10.90
2018-02-09T15:07:35.671Z,10.90
2018-02-09T15:10:05.092Z,10.90
2018-02-09T15:12:34.160Z,11.00
2018-02-09T15:15:03.256Z,10.80
2018-02-09T15:17:32.635Z,11.00
2018-02-09T15:20:02.014Z,10.90
2018-02-09T15:22:31.414Z,10.80
2018-02-09T15:25:00.456Z,10.70
2018-02-09T15:27:30.164Z,10.60
2018-02-09T15:29:58.850Z,10.70
2018-02-09T15:32:28.359Z,10.60
2018-02-09T15:34:57.745Z,10.70
2018-02-09T15:37:26.387Z,10.60
2018-02-09T15:39:55.427Z,10.50
2018-02-09T15:42:24.801Z,10.60
2018-02-09T15:44:54.566Z,10.60
2018-02-09T15:47:23.934Z,10.60
2018-02-09T15:49:53.309Z,10.80
2018-02-09T15:52:23.445Z,10.80
2018-02-09T15:54:52.834Z,10.70
2018-02-09T15:57:21.848Z,10.60
2018-02-09T15:59:51.272Z,10.70
2018-02-09T16:02:20.662Z,10.60
2018-02-09T16:04:50.078Z,10.60
2018-02-09T16:07:18.712Z,10.70
2018-02-09T16:09:48.834Z,10.60
2018-02-09T16:12:18.229Z,10.50
2018-02-09T16:14:47.641Z,10.30
2018-02-09T16:17:17.044Z,10.30
2018-02-09T16:19:46.816Z,10.20
2018-02-09T16:22:15.473Z,10.20
2018-02-09T16:24:44.609Z,10.10
2018-02-09T16:27:13.704Z,10.30
2018-02-09T16:29:42.728Z,10.30
2018-02-09T16:32:11.798Z,10.40
2018-02-09T16:34:41.189Z,10.40
2018-02-09T16:37:10.545Z,10.30
2018-02-09T16:39:40.081Z,10.30
2018-02-09T16:42:09.153Z,10.30
2018-02-09T16:44:38.271Z,10.20
2018-02-09T16:47:07.317Z,10.20
2018-02-09T16:49:35.999Z,10.20
2018-02-09T16:52:05.361Z,10.20
2018-02-09T16:54:34.861Z,10.20
2018-02-09T16:57:04.527Z,10.20
2018-02-09T16:59:33.580Z,10.10
2018-02-09T17:02:02.184Z,10.00
2018-02-09T17:04:31.703Z,9.90
2018-02-09T17:07:01.126Z,9.70
2018-02-09T17:09:30.181Z,9.70
2018-02-09T17:11:58.897Z,9.60
2018-02-09T17:14:28.674Z,9.40
2018-02-09T17:16:58.072Z,9.30
2018-02-09T17:19:27.154Z,9.30
2018-02-09T17:21:56.602Z,9.30
2018-02-09T17:24:26.039Z,9.20
2018-02-09T17:26:55.143Z,9.20
2018-02-09T17:29:24.249Z,9.10
2018-02-09T17:31:53.602Z,9.10
2018-02-09T17:34:22.918Z,9.10
2018-02-09T17:36:52.285Z,9.10
2018-02-09T17:39:22.409Z,9.10
2018-02-09T17:41:51.405Z,9.20
2018-02-09T17:44:20.759Z,9.20
2018-02-09T17:46:49.969Z,9.10
2018-02-09T17:49:18.587Z,9.20
2018-02-09T17:51:47.754Z,9.20
2018-02-09T17:54:17.497Z,9.30
2018-02-09T17:56:47.375Z,9.40
2018-02-09T17:59:16.880Z,9.30
2018-02-09T18:01:46.793Z,9.20
2018-02-09T18:04:16.148Z,9.20
2018-02-09T18:11:46.965Z,9.20
2018-02-09T18:14:16.798Z,9.10
2018-02-09T18:16:47.511Z,9.00
2018-02-09T18:19:16.560Z,9.00
2018-02-09T18:21:45.231Z,9.10
2018-02-09T18:24:14.674Z,9.10
2018-02-09T18:26:44.099Z,9.20
2018-02-09T18:29:13.475Z,9.20
2018-02-09T18:31:43.008Z,8.90
2018-02-09T18:34:12.428Z,8.80
2018-02-09T18:36:41.398Z,8.60
2018-02-09T18:39:10.802Z,8.70
2018-02-09T18:41:39.598Z,8.70
2018-02-09T18:44:09.485Z,8.60
2018-02-09T18:46:38.885Z,8.60
2018-02-09T18:49:08.374Z,8.70
2018-02-09T18:51:37.838Z,8.70
2018-02-09T18:54:07.261Z,8.70
2018-02-09T18:56:36.426Z,8.60
2018-02-09T18:59:05.213Z,8.60
2018-02-09T19:01:34.320Z,8.70
2018-02-09T19:04:04.334Z,8.60
2018-02-09T19:06:40.415Z,8.60
2018-02-09T19:09:10.334Z,8.70
2018-02-09T19:11:39.912Z,8.70
2018-02-09T19:24:38.121Z,8.80
2018-02-09T19:47:40.795Z,8.90
2018-02-09T19:50:10.287Z,8.90
2018-02-09T19:52:40.639Z,8.90
2018-02-09T19:55:10.060Z,8.80
2018-02-09T19:57:39.148Z,8.90
2018-02-09T20:00:09.254Z,9.00
2018-02-09T20:02:39.269Z,9.00
2018-02-09T20:05:08.407Z,8.90
2018-02-09T20:07:39.235Z,8.70
2018-02-09T20:12:38.988Z,8.50
2018-02-09T20:15:08.550Z,8.50
2018-02-09T20:17:40.953Z,8.60
2018-02-09T20:20:10.907Z,8.60
2018-02-09T20:22:39.942Z,9.10
2018-02-09T20:25:09.382Z,8.70
2018-02-09T20:27:38.862Z,8.70
2018-02-09T20:30:08.210Z,8.70
2018-02-09T20:32:39.274Z,8.70
2018-02-09T20:35:09.046Z,8.80
2018-02-09T20:37:39.114Z,8.70
2018-02-09T20:42:37.771Z,8.60
2018-02-09T20:45:06.525Z,8.70
2018-02-09T20:47:35.560Z,8.60
2018-02-09T20:50:04.559Z,8.70
2018-02-09T20:52:35.130Z,8.70
2018-02-09T20:55:04.939Z,8.70
2018-02-09T21:19:47.944Z,8.90
2018-02-09T21:24:46.530Z,8.60
2018-02-09T21:29:45.339Z,9.30
2018-02-09T21:32:14.634Z,8.90
2018-02-09T21:37:15.446Z,9.10
2018-02-09T21:44:44.879Z,9.00
2018-02-09T21:47:13.560Z,9.20
2018-02-09T21:49:42.961Z,9.00
2018-02-09T21:52:12.317Z,8.90
2018-02-09T21:54:41.074Z,8.70
2018-02-09T21:57:11.338Z,8.90
2018-02-09T21:59:41.132Z,8.80
2018-02-09T22:10:08.551Z,8.80
2018-02-09T22:12:37.587Z,8.80
2018-02-09T22:15:06.906Z,8.80
2018-02-09T22:17:36.701Z,8.70
2018-02-09T22:20:05.753Z,8.70
2018-02-09T22:22:35.150Z,8.80
2018-02-09T22:27:33.940Z,8.70
2018-02-09T22:32:32.449Z,8.30
2018-02-09T22:35:02.043Z,8.60
2018-02-09T22:37:30.694Z,8.80
2018-02-09T22:40:00.560Z,8.60
2018-02-09T22:42:29.708Z,8.70
2018-02-09T22:44:59.227Z,8.70
2018-02-09T22:47:28.060Z,8.90
2018-02-09T22:49:57.505Z,8.50
2018-02-09T22:52:27.054Z,8.60
2018-02-09T22:54:55.715Z,8.70
2018-02-09T22:57:26.086Z,8.60
2018-02-09T22:59:55.486Z,8.50
2018-02-09T23:02:24.817Z,8.50
2018-02-09T23:04:53.431Z,8.80
2018-02-09T23:07:22.830Z,8.50
2018-02-09T23:09:51.404Z,8.30
2018-02-09T23:12:21.266Z,8.40
2018-02-09T23:14:52.829Z,8.40
2018-02-09T23:17:21.789Z,8.20
2018-02-09T23:19:51.219Z,8.20
2018-02-09T23:22:19.869Z,8.50
2018-02-09T23:24:49.681Z,8.40
2018-02-09T23:27:19.918Z,8.30
2018-02-09T23:29:48.971Z,8.20
2018-02-09T23:32:18.383Z,8.30
2018-02-09T23:34:47.443Z,8.40
2018-02-09T23:37:17.347Z,8.40
2018-02-09T23:39:47.258Z,8.40
2018-02-09T23:42:16.278Z,8.30
2018-02-09T23:44:45.877Z,8.10
2018-02-09T23:47:15.159Z,7.90
2018-02-09T23:49:44.523Z,8.20
2018-02-09T23:52:13.921Z,8.20
2018-02-09T23:54:44.753Z,8.20
2018-02-09T23:57:13.752Z,8.10
2018-02-09T23:59:43.959Z,8.20
